createdAt,value
2018-12-05T00:00:07.466Z,38.40
2018-12-05T00:02:34.350Z,38.40
2018-12-05T00:05:01.212Z,38.40
2018-12-05T00:07:28.035Z,38.30
2018-12-05T00:09:54.870Z,38.30
2018-12-05T00:12:22.466Z,38.20
2018-12-05T00:14:49.279Z,38.30
2018-12-05T00:17:16.106Z,38.40
2018-12-05T00:19:42.943Z,38.40
2018-12-05T00:22:09.916Z,38.40
2018-12-05T00:24:36.909Z,38.30
2018-12-05T00:27:03.870Z,38.30
2018-12-05T00:29:30.723Z,38.40
2018-12-05T00:31:57.693Z,38.40
2018-12-05T00:34:24.532Z,38.30
2018-12-05T00:36:51.364Z,38.30
2018-12-05T00:39:18.209Z,38.10
2018-12-05T00:41:45.056Z,38.20
2018-12-05T00:44:11.888Z,38.20
2018-12-05T00:46:38.732Z,38.20
2018-12-05T00:49:05.573Z,38.20
2018-12-05T00:51:32.418Z,38.20
2018-12-05T00:53:59.267Z,38.10
2018-12-05T00:56:26.101Z,38.10
2018-12-05T00:58:52.955Z,38.20
2018-12-05T01:01:19.998Z,38.10
2018-12-05T01:03:46.827Z,38.20
2018-12-05T01:06:13.664Z,38.20
2018-12-05T01:08:40.508Z,38.30
2018-12-05T01:11:07.406Z,38.10
2018-12-05T01:13:34.250Z,38.10
2018-12-05T01:16:01.083Z,38.10
2018-12-05T01:18:27.911Z,38.00
2018-12-05T01:20:54.951Z,38.00
2018-12-05T01:23:21.788Z,38.20
2018-12-05T01:25:48.625Z,38.20
2018-12-05T01:28:15.463Z,38.20
2018-12-05T01:30:42.335Z,38.30
2018-12-05T01:33:09.223Z,38.10
2018-12-05T01:35:36.069Z,38.20
2018-12-05T01:38:02.908Z,38.10
2018-12-05T01:40:29.761Z,38.20
2018-12-05T01:42:56.593Z,38.20
2018-12-05T01:45:23.434Z,38.20
2018-12-05T01:47:50.263Z,38.30
2018-12-05T01:50:17.100Z,38.30
2018-12-05T01:52:44.103Z,38.30
2018-12-05T01:55:10.949Z,38.20
2018-12-05T01:57:37.785Z,38.30
2018-12-05T02:00:04.629Z,38.40
2018-12-05T02:02:31.481Z,38.30
2018-12-05T02:04:58.321Z,38.20
2018-12-05T02:07:26.248Z,38.20
2018-12-05T02:09:53.442Z,38.20
2018-12-05T02:12:20.305Z,38.30
2018-12-05T02:14:47.195Z,38.30
2018-12-05T02:17:14.409Z,38.10
2018-12-05T02:19:41.209Z,38.10
2018-12-05T02:22:08.082Z,38.10
2018-12-05T02:24:34.933Z,38.00
2018-12-05T02:27:01.779Z,38.20
2018-12-05T02:29:28.622Z,38.10
2018-12-05T02:31:55.646Z,38.20
2018-12-05T02:34:22.492Z,38.10
2018-12-05T02:36:49.321Z,38.00
2018-12-05T02:39:16.234Z,38.60
2018-12-05T02:41:43.230Z,38.00
2018-12-05T02:44:10.056Z,38.10
2018-12-05T02:46:36.896Z,38.10
2018-12-05T02:49:03.733Z,38.20
2018-12-05T02:51:30.621Z,38.20
2018-12-05T02:53:57.442Z,38.20
2018-12-05T02:56:24.310Z,38.20
2018-12-05T02:58:51.133Z,38.20
2018-12-05T03:01:18.345Z,38.20
2018-12-05T03:03:45.148Z,38.30
2018-12-05T03:06:11.983Z,38.20
2018-12-05T03:08:38.825Z,38.30
2018-12-05T03:11:05.743Z,38.30
2018-12-05T03:13:32.571Z,38.30
2018-12-05T03:15:59.401Z,38.20
2018-12-05T03:18:26.234Z,38.20
2018-12-05T03:20:53.116Z,38.20
2018-12-05T03:23:19.957Z,38.10
2018-12-05T03:25:46.788Z,38.20
2018-12-05T03:28:13.619Z,38.20
2018-12-05T03:30:40.492Z,38.20
2018-12-05T03:33:07.432Z,38.00
2018-12-05T03:35:34.346Z,38.10
2018-12-05T03:38:01.292Z,38.00
2018-12-05T03:40:28.128Z,38.10
2018-12-05T03:42:54.964Z,38.20
2018-12-05T03:45:21.810Z,38.10
2018-12-05T03:47:48.641Z,38.10
2018-12-05T03:50:15.489Z,38.10
2018-12-05T03:52:42.500Z,38.10
2018-12-05T03:55:09.406Z,38.00
2018-12-05T03:57:36.236Z,38.20
2018-12-05T04:00:03.236Z,38.10
2018-12-05T04:02:30.066Z,38.10
2018-12-05T04:04:56.959Z,38.00
2018-12-05T04:07:23.809Z,38.00
2018-12-05T04:09:50.690Z,38.10
2018-12-05T04:12:17.643Z,38.00
2018-12-05T04:14:44.491Z,38.00
2018-12-05T04:17:12.456Z,37.90
2018-12-05T04:19:39.265Z,38.00
2018-12-05T04:22:06.244Z,38.00
2018-12-05T04:24:33.085Z,38.00
2018-12-05T04:26:59.925Z,37.90
2018-12-05T04:29:26.764Z,37.70
2018-12-05T04:31:53.633Z,37.60
2018-12-05T04:34:20.460Z,37.70
2018-12-05T04:36:53.269Z,37.70
2018-12-05T04:39:20.193Z,37.80
2018-12-05T04:41:47.134Z,37.80
2018-12-05T04:44:14.029Z,37.90
2018-12-05T04:46:41.033Z,37.80
2018-12-05T04:49:07.881Z,37.90
2018-12-05T04:51:34.908Z,37.90
2018-12-05T04:54:01.757Z,37.90
2018-12-05T04:56:28.593Z,38.00
2018-12-05T04:58:55.443Z,37.90
2018-12-05T05:01:23.333Z,38.00
2018-12-05T05:03:50.128Z,37.90
2018-12-05T05:06:16.970Z,38.00
2018-12-05T05:08:43.800Z,38.00
2018-12-05T05:11:10.670Z,38.10
2018-12-05T05:13:37.520Z,38.00
2018-12-05T05:16:04.374Z,37.90
2018-12-05T05:18:31.213Z,37.80
2018-12-05T05:20:58.254Z,37.70
2018-12-05T05:23:25.093Z,37.90
2018-12-05T05:25:51.928Z,37.90
2018-12-05T05:28:18.801Z,37.70
2018-12-05T05:30:45.833Z,37.80
2018-12-05T05:33:12.663Z,37.90
2018-12-05T05:35:39.502Z,37.90
2018-12-05T05:38:06.586Z,38.00
2018-12-05T05:40:33.415Z,37.90
2018-12-05T05:43:00.250Z,38.60
2018-12-05T05:45:27.083Z,38.00
2018-12-05T05:47:53.931Z,37.90
2018-12-05T05:50:20.787Z,37.90
2018-12-05T05:52:47.685Z,37.90
2018-12-05T05:55:14.521Z,37.90
2018-12-05T05:57:41.372Z,37.90
2018-12-05T06:00:08.209Z,37.90
2018-12-05T06:02:35.055Z,37.90
2018-12-05T06:05:01.902Z,37.90
2018-12-05T06:07:28.728Z,37.80
2018-12-05T06:09:55.556Z,38.00
2018-12-05T06:12:22.565Z,37.90
2018-12-05T06:14:49.404Z,37.80
2018-12-05T06:17:16.691Z,37.80
2018-12-05T06:19:43.531Z,37.80
2018-12-05T06:22:10.556Z,37.80
2018-12-05T06:24:37.464Z,37.70
2018-12-05T06:27:04.340Z,37.80
2018-12-05T06:29:31.179Z,37.80
2018-12-05T06:31:58.122Z,37.80
2018-12-05T06:34:24.959Z,37.80
2018-12-05T06:36:51.800Z,37.80
2018-12-05T06:39:18.638Z,37.80
2018-12-05T06:41:45.514Z,37.70
2018-12-05T06:44:12.353Z,37.80
2018-12-05T06:46:39.214Z,37.80
2018-12-05T06:49:06.054Z,37.70
2018-12-05T06:51:33.073Z,37.70
2018-12-05T06:53:59.916Z,37.70
2018-12-05T06:56:26.741Z,37.70
2018-12-05T06:58:53.580Z,37.70
2018-12-05T07:01:20.460Z,37.70
2018-12-05T07:03:47.306Z,37.70
2018-12-05T07:06:14.130Z,37.70
2018-12-05T07:08:41.059Z,37.70
2018-12-05T07:11:08.025Z,37.70
2018-12-05T07:13:34.876Z,37.70
2018-12-05T07:16:01.704Z,37.70
2018-12-05T07:18:28.541Z,37.70
2018-12-05T07:20:55.398Z,37.70
2018-12-05T07:23:22.232Z,37.70
2018-12-05T07:25:49.067Z,37.70
2018-12-05T07:28:15.908Z,37.80
2018-12-05T07:30:42.795Z,37.70
2018-12-05T07:33:09.657Z,37.70
2018-12-05T07:35:36.455Z,37.70
2018-12-05T07:38:03.308Z,37.70
2018-12-05T07:40:30.153Z,37.70
2018-12-05T07:42:56.988Z,37.70
2018-12-05T07:45:23.829Z,37.70
2018-12-05T07:47:50.666Z,37.70
2018-12-05T07:50:17.522Z,37.70
2018-12-05T07:52:44.356Z,37.70
2018-12-05T07:55:11.425Z,37.70
2018-12-05T07:57:38.252Z,37.70
2018-12-05T08:00:05.410Z,37.70
2018-12-05T08:02:32.350Z,37.70
2018-12-05T08:04:59.191Z,37.70
2018-12-05T08:07:26.057Z,37.70
2018-12-05T08:09:52.892Z,37.70
2018-12-05T08:12:19.915Z,37.60
2018-12-05T08:14:46.754Z,37.70
2018-12-05T08:17:14.035Z,38.20
2018-12-05T08:19:40.838Z,37.60
2018-12-05T08:22:07.705Z,37.60
2018-12-05T08:24:34.538Z,37.60
2018-12-05T08:27:01.409Z,37.30
2018-12-05T08:29:28.264Z,37.30
2018-12-05T08:31:55.272Z,37.30
2018-12-05T08:34:22.143Z,37.40
2018-12-05T08:36:48.976Z,37.40
2018-12-05T08:39:15.838Z,37.40
2018-12-05T08:41:42.849Z,37.40
2018-12-05T08:44:09.695Z,37.30
2018-12-05T08:46:36.615Z,37.40
2018-12-05T08:49:03.451Z,37.40
2018-12-05T08:51:30.424Z,37.40
2018-12-05T08:53:57.267Z,37.40
2018-12-05T08:56:24.114Z,37.40
2018-12-05T08:58:50.946Z,37.40
2018-12-05T09:01:17.792Z,37.40
2018-12-05T09:03:44.618Z,37.40
2018-12-05T09:06:11.454Z,37.40
2018-12-05T09:08:50.303Z,37.50
2018-12-05T09:11:17.267Z,37.20
2018-12-05T09:13:44.101Z,37.50
2018-12-05T09:16:10.946Z,37.60
2018-12-05T09:18:37.807Z,37.60
2018-12-05T09:21:04.825Z,37.60
2018-12-05T09:23:31.654Z,37.50
2018-12-05T09:25:58.494Z,37.50
2018-12-05T09:28:25.336Z,37.40
2018-12-05T09:30:52.199Z,37.40
2018-12-05T09:33:19.035Z,37.40
2018-12-05T09:35:45.868Z,37.40
2018-12-05T09:38:12.724Z,37.40
2018-12-05T09:40:39.573Z,37.40
2018-12-05T09:43:06.411Z,37.40
2018-12-05T09:45:33.250Z,37.40
2018-12-05T09:48:00.114Z,37.40
2018-12-05T09:50:27.007Z,37.40
2018-12-05T09:52:53.847Z,37.40
2018-12-05T09:55:20.685Z,37.40
2018-12-05T09:57:48.492Z,37.40
2018-12-05T10:00:15.418Z,37.40
2018-12-05T10:02:42.253Z,37.40
2018-12-05T10:05:09.094Z,37.40
2018-12-05T10:07:35.934Z,37.40
2018-12-05T10:10:02.777Z,37.40
2018-12-05T10:12:29.761Z,37.40
2018-12-05T10:14:56.589Z,37.40
2018-12-05T10:17:24.495Z,37.40
2018-12-05T10:19:51.301Z,37.30
2018-12-05T10:22:18.167Z,38.00
2018-12-05T10:24:44.994Z,37.30
2018-12-05T10:27:11.827Z,37.40
2018-12-05T10:29:38.674Z,37.40
2018-12-05T10:32:05.537Z,37.40
2018-12-05T10:34:32.447Z,37.40
2018-12-05T10:36:59.792Z,37.40
2018-12-05T10:39:26.670Z,37.30
2018-12-05T10:41:53.517Z,37.40
2018-12-05T10:44:20.366Z,37.30
2018-12-05T10:46:47.222Z,37.30
2018-12-05T10:49:14.060Z,37.30
2018-12-05T10:51:53.606Z,37.40
2018-12-05T10:54:20.408Z,37.30
2018-12-05T10:56:50.610Z,37.40
2018-12-05T10:59:28.614Z,37.40
2018-12-05T11:02:02.270Z,37.40
2018-12-05T11:04:41.044Z,37.40
2018-12-05T11:07:16.239Z,37.40
2018-12-05T11:09:52.025Z,37.40
2018-12-05T11:12:23.347Z,37.40
2018-12-05T11:14:57.523Z,37.40
2018-12-05T11:17:29.489Z,37.50
2018-12-05T11:20:00.703Z,37.30
2018-12-05T11:22:29.786Z,37.40
2018-12-05T11:25:06.160Z,37.40
2018-12-05T11:27:32.980Z,37.50
2018-12-05T11:29:59.843Z,37.40
2018-12-05T11:32:26.843Z,37.40
2018-12-05T11:34:53.689Z,37.50
2018-12-05T11:37:20.544Z,37.50
2018-12-05T11:39:47.381Z,37.50
2018-12-05T11:42:14.414Z,37.50
2018-12-05T11:44:41.243Z,37.50
2018-12-05T11:47:08.084Z,37.50
2018-12-05T11:49:34.929Z,37.50
2018-12-05T11:52:01.983Z,37.40
2018-12-05T11:54:30.032Z,37.50
2018-12-05T11:56:56.854Z,37.50
2018-12-05T11:59:23.688Z,37.50
2018-12-05T12:01:50.593Z,37.60
2018-12-05T12:04:17.424Z,37.60
2018-12-05T12:06:44.265Z,37.60
2018-12-05T12:09:11.101Z,37.60
2018-12-05T12:11:37.960Z,37.70
2018-12-05T12:14:04.807Z,37.60
2018-12-05T12:16:31.646Z,37.70
2018-12-05T12:18:58.487Z,37.70
2018-12-05T12:21:25.526Z,37.70
2018-12-05T12:23:53.214Z,37.50
2018-12-05T12:26:20.416Z,37.60
2018-12-05T12:28:47.254Z,37.60
2018-12-05T12:31:14.133Z,37.60
2018-12-05T12:33:40.971Z,37.70
2018-12-05T12:36:07.799Z,37.70
2018-12-05T12:38:34.629Z,37.70
2018-12-05T12:41:01.510Z,37.70
2018-12-05T12:43:28.341Z,37.70
2018-12-05T12:45:55.186Z,37.70
2018-12-05T12:48:22.042Z,37.70
2018-12-05T12:50:49.069Z,37.60
2018-12-05T12:53:15.906Z,37.60
2018-12-05T12:55:42.751Z,37.70
2018-12-05T12:58:09.585Z,37.70
2018-12-05T13:00:36.791Z,37.70
2018-12-05T13:03:03.703Z,37.60
2018-12-05T13:05:30.534Z,37.70
2018-12-05T13:07:57.387Z,37.70
2018-12-05T13:10:24.251Z,37.70
2018-12-05T13:12:51.091Z,37.60
2018-12-05T13:15:17.958Z,37.70
2018-12-05T13:17:44.806Z,37.70
2018-12-05T13:20:11.821Z,37.70
2018-12-05T13:22:38.683Z,37.70
2018-12-05T13:25:05.515Z,37.70
2018-12-05T13:27:32.352Z,37.70
2018-12-05T13:29:59.177Z,37.70
2018-12-05T13:32:26.456Z,37.70
2018-12-05T13:34:53.262Z,37.70
2018-12-05T13:37:20.091Z,37.70
2018-12-05T13:39:46.923Z,37.80
2018-12-05T13:42:13.861Z,37.70
2018-12-05T13:44:40.667Z,37.70
2018-12-05T13:47:07.515Z,37.70
2018-12-05T13:49:34.378Z,37.70
2018-12-05T13:52:01.396Z,37.70
2018-12-05T13:54:28.310Z,37.70
2018-12-05T13:56:55.134Z,37.80
2018-12-05T13:59:21.990Z,37.80
2018-12-05T14:01:48.952Z,37.80
2018-12-05T14:04:15.786Z,37.80
2018-12-05T14:06:42.640Z,37.80
2018-12-05T14:09:09.468Z,37.70
2018-12-05T14:11:36.333Z,37.80
2018-12-05T14:14:03.176Z,37.80
2018-12-05T14:16:30.010Z,37.70
2018-12-05T14:18:56.878Z,37.70
2018-12-05T14:21:23.897Z,37.80
2018-12-05T14:23:50.757Z,37.90
2018-12-05T14:26:17.606Z,37.70
2018-12-05T14:28:44.440Z,37.80
2018-12-05T14:31:11.506Z,37.80
2018-12-05T14:33:38.415Z,37.90
2018-12-05T14:36:05.258Z,38.00
2018-12-05T14:38:32.097Z,37.80
2018-12-05T14:40:59.058Z,37.80
2018-12-05T14:43:25.891Z,37.90
2018-12-05T14:45:52.744Z,37.90
2018-12-05T14:48:19.587Z,38.00
2018-12-05T14:50:46.635Z,38.00
2018-12-05T14:53:13.456Z,38.00
2018-12-05T14:55:40.292Z,38.00
2018-12-05T14:58:07.133Z,38.00
2018-12-05T15:00:34.012Z,38.00
2018-12-05T15:03:00.852Z,38.00
2018-12-05T15:05:27.758Z,38.00
2018-12-05T15:07:54.753Z,37.90
2018-12-05T15:10:22.866Z,38.00
2018-12-05T15:12:49.715Z,38.10
2018-12-05T15:15:17.619Z,38.00
2018-12-05T15:17:44.450Z,38.00
2018-12-05T15:20:11.292Z,38.00
2018-12-05T15:22:38.145Z,38.00
2018-12-05T15:25:04.972Z,37.90
2018-12-05T15:27:31.809Z,37.90
2018-12-05T15:29:58.654Z,37.90
2018-12-05T15:32:26.614Z,37.90
2018-12-05T15:34:53.432Z,38.00
2018-12-05T15:37:21.213Z,37.90
2018-12-05T15:39:48.105Z,38.00
2018-12-05T15:42:15.048Z,38.00
2018-12-05T15:44:41.879Z,38.00
2018-12-05T15:47:08.796Z,38.00
2018-12-05T15:49:35.794Z,38.00
2018-12-05T15:52:02.826Z,38.00
2018-12-05T15:54:31.334Z,38.00
2018-12-05T15:56:58.219Z,38.00
2018-12-05T15:59:25.047Z,38.00
2018-12-05T16:01:52.311Z,38.00
2018-12-05T16:04:19.340Z,38.00
2018-12-05T16:06:46.373Z,38.10
2018-12-05T16:09:13.212Z,38.00
2018-12-05T16:11:40.228Z,38.00
2018-12-05T16:14:07.080Z,38.00
2018-12-05T16:16:33.929Z,38.10
2018-12-05T16:19:00.767Z,38.10
2018-12-05T16:21:27.810Z,38.10
2018-12-05T16:23:54.644Z,38.10
2018-12-05T16:26:21.484Z,38.10
2018-12-05T16:28:48.323Z,38.10
2018-12-05T16:31:15.189Z,38.10
2018-12-05T16:33:42.025Z,38.10
2018-12-05T16:36:11.205Z,38.10
2018-12-05T16:38:37.679Z,38.10
2018-12-05T16:41:04.828Z,38.20
2018-12-05T16:43:31.664Z,38.10
2018-12-05T16:45:58.518Z,38.10
2018-12-05T16:48:25.362Z,38.20
2018-12-05T16:50:52.375Z,38.20
2018-12-05T16:53:19.254Z,38.20
2018-12-05T16:55:46.514Z,38.20
2018-12-05T16:58:13.353Z,38.20
2018-12-05T17:00:40.369Z,38.20
2018-12-05T17:03:07.216Z,38.20
2018-12-05T17:05:34.284Z,38.30
2018-12-05T17:08:01.092Z,38.20
2018-12-05T17:10:27.941Z,38.20
2018-12-05T17:12:54.788Z,38.20
2018-12-05T17:15:21.616Z,38.20
2018-12-05T17:17:48.448Z,38.20
2018-12-05T17:20:15.377Z,38.10
2018-12-05T17:22:42.234Z,38.10
2018-12-05T17:25:09.076Z,38.20
2018-12-05T17:27:35.909Z,38.20
2018-12-05T17:30:02.781Z,38.20
2018-12-05T17:32:30.204Z,38.20
2018-12-05T17:34:57.019Z,38.10
2018-12-05T17:37:23.890Z,38.10
2018-12-05T17:39:50.746Z,38.20
2018-12-05T17:42:17.814Z,38.10
2018-12-05T17:44:44.961Z,38.10
2018-12-05T17:47:11.817Z,38.20
2018-12-05T17:49:38.714Z,37.80
2018-12-05T17:52:05.717Z,37.90
2018-12-05T17:54:33.231Z,37.90
2018-12-05T17:57:09.038Z,37.90
2018-12-05T17:59:39.965Z,38.00
2018-12-05T18:02:06.837Z,38.10
2018-12-05T18:04:33.705Z,38.00
2018-12-05T18:07:00.703Z,38.20
2018-12-05T18:09:27.577Z,38.10
2018-12-05T18:11:54.609Z,38.20
2018-12-05T18:14:21.462Z,38.10
2018-12-05T18:16:48.294Z,38.10
2018-12-05T18:19:15.126Z,38.10
2018-12-05T18:21:42.236Z,38.10
2018-12-05T18:24:09.074Z,38.10
2018-12-05T18:26:35.919Z,38.10
2018-12-05T18:29:02.754Z,38.00
2018-12-05T18:31:29.762Z,38.10
2018-12-05T18:33:56.616Z,38.10
2018-12-05T18:36:23.647Z,38.10
2018-12-05T18:38:50.487Z,38.10
2018-12-05T18:41:17.394Z,38.00
2018-12-05T18:43:44.240Z,38.10
2018-12-05T18:46:11.272Z,38.00
2018-12-05T18:48:38.123Z,37.20
2018-12-05T18:51:05.124Z,37.20
2018-12-05T18:53:31.967Z,37.40
2018-12-05T18:55:58.816Z,37.40
2018-12-05T18:58:25.663Z,37.40
2018-12-05T19:00:52.699Z,37.40
2018-12-05T19:03:19.640Z,37.40
2018-12-05T19:05:46.495Z,37.40
2018-12-05T19:08:13.334Z,36.20
2018-12-05T19:10:40.196Z,36.60
2018-12-05T19:13:12.448Z,36.80
2018-12-05T19:15:39.460Z,36.90
2018-12-05T19:18:06.354Z,36.50
2018-12-05T19:20:33.580Z,36.90
2018-12-05T19:23:00.542Z,36.90
2018-12-05T19:25:27.377Z,36.90
2018-12-05T19:27:54.330Z,36.80
2018-12-05T19:30:21.199Z,36.80
2018-12-05T19:32:48.089Z,36.90
2018-12-05T19:35:14.926Z,36.90
2018-12-05T19:37:41.895Z,36.80
2018-12-05T19:40:08.731Z,36.80
2018-12-05T19:42:35.687Z,36.80
2018-12-05T19:45:02.725Z,36.80
2018-12-05T19:47:30.190Z,36.70
2018-12-05T19:49:57.126Z,36.60
2018-12-05T19:52:24.204Z,36.70
2018-12-05T19:54:51.301Z,36.50
2018-12-05T19:57:18.656Z,36.80
2018-12-05T19:59:46.805Z,36.90
2018-12-05T20:02:14.315Z,37.00
2018-12-05T20:04:42.593Z,37.10
2018-12-05T20:07:09.942Z,37.10
2018-12-05T20:09:36.986Z,37.20
2018-12-05T20:12:06.088Z,37.10
2018-12-05T20:14:36.201Z,37.20
2018-12-05T20:17:06.529Z,37.30
2018-12-05T20:19:33.467Z,37.30
2018-12-05T20:22:05.177Z,37.30
2018-12-05T20:24:32.285Z,37.30
2018-12-05T20:26:59.137Z,37.40
2018-12-05T20:29:26.011Z,37.50
2018-12-05T20:31:53.112Z,37.50
2018-12-05T20:34:19.944Z,37.50
2018-12-05T20:36:46.789Z,37.50
2018-12-05T20:39:13.633Z,37.50
2018-12-05T20:41:40.752Z,37.50
2018-12-05T20:44:07.571Z,37.50
2018-12-05T20:46:34.409Z,37.60
2018-12-05T20:49:01.270Z,37.60
2018-12-05T20:51:28.247Z,37.80
2018-12-05T20:53:55.102Z,37.80
2018-12-05T20:56:21.939Z,37.80
2018-12-05T20:58:48.796Z,37.80
2018-12-05T21:01:15.890Z,37.80
2018-12-05T21:03:42.759Z,37.80
2018-12-05T21:06:09.581Z,37.90
2018-12-05T21:08:36.594Z,37.90
2018-12-05T21:11:03.486Z,37.90
2018-12-05T21:13:30.319Z,38.00
2018-12-05T21:15:57.198Z,38.00
2018-12-05T21:18:24.063Z,37.90
2018-12-05T21:20:50.984Z,38.00
2018-12-05T21:23:17.818Z,38.00
2018-12-05T21:25:44.660Z,38.00
2018-12-05T21:28:11.508Z,38.00
2018-12-05T21:30:38.567Z,38.00
2018-12-05T21:33:05.441Z,38.00
2018-12-05T21:35:32.307Z,38.00
2018-12-05T21:37:59.150Z,37.90
2018-12-05T21:40:25.989Z,37.90
2018-12-05T21:42:52.825Z,37.90
2018-12-05T21:45:19.738Z,37.90
2018-12-05T21:47:46.581Z,37.90
2018-12-05T21:50:13.525Z,37.80
2018-12-05T21:52:40.363Z,37.90
2018-12-05T21:55:07.180Z,37.90
2018-12-05T21:57:34.286Z,37.80
2018-12-05T22:00:01.141Z,37.80
2018-12-05T22:02:29.503Z,37.80
2018-12-05T22:04:56.324Z,37.80
2018-12-05T22:07:23.191Z,37.80
2018-12-05T22:09:50.110Z,37.80
2018-12-05T22:12:17.062Z,37.80
2018-12-05T22:14:44.221Z,37.90
2018-12-05T22:17:11.667Z,37.80
2018-12-05T22:19:38.713Z,37.70
2018-12-05T22:22:05.734Z,37.70
2018-12-05T22:24:32.655Z,37.70
2018-12-05T22:26:59.705Z,37.70
2018-12-05T22:29:26.560Z,37.70
2018-12-05T22:31:53.746Z,37.70
2018-12-05T22:34:20.574Z,37.70
2018-12-05T22:36:47.646Z,37.70
2018-12-05T22:39:14.487Z,38.30
2018-12-05T22:41:41.503Z,37.70
2018-12-05T22:44:08.335Z,37.70
2018-12-05T22:46:35.182Z,37.70
2018-12-05T22:49:02.023Z,37.70
2018-12-05T22:51:28.889Z,37.70
2018-12-05T22:53:55.708Z,37.70
2018-12-05T22:56:22.542Z,37.70
2018-12-05T22:58:49.384Z,37.70
2018-12-05T23:01:16.247Z,37.60
2018-12-05T23:03:43.086Z,37.80
2018-12-05T23:06:09.928Z,37.60
2018-12-05T23:08:36.770Z,37.70
2018-12-05T23:11:03.825Z,37.60
2018-12-05T23:13:30.753Z,37.70
2018-12-05T23:15:57.594Z,37.70
2018-12-05T23:18:24.448Z,37.70
2018-12-05T23:20:51.476Z,37.70
2018-12-05T23:23:18.292Z,37.70
2018-12-05T23:25:45.146Z,37.70
2018-12-05T23:28:11.981Z,37.70
2018-12-05T23:30:38.969Z,37.70
2018-12-05T23:33:05.813Z,37.70
2018-12-05T23:35:32.664Z,37.70
2018-12-05T23:37:59.486Z,37.70
2018-12-05T23:40:26.319Z,37.70
2018-12-05T23:42:53.239Z,38.30
2018-12-05T23:45:20.050Z,37.70
2018-12-05T23:47:46.893Z,37.70
2018-12-05T23:50:13.735Z,37.70
2018-12-05T23:52:40.565Z,37.70
2018-12-05T23:55:07.488Z,37.70
2018-12-05T23:57:34.322Z,37.70
